createdAt,value
2022-09-20T00:01:56.428Z,1.47
2022-09-20T00:04:27.557Z,1.97
2022-09-20T00:06:57.360Z,1.30
2022-09-20T00:09:27.235Z,1.70
2022-09-20T00:11:56.997Z,1.80
2022-09-20T00:14:26.688Z,1.30
2022-09-20T00:16:56.437Z,1.40
2022-09-20T00:19:27.812Z,1.60
2022-09-20T00:21:57.114Z,1.73
2022-09-20T00:24:26.805Z,1.60
2022-09-20T00:26:56.160Z,1.90
2022-09-20T00:29:26.228Z,1.43
2022-09-20T00:31:55.527Z,1.70
2022-09-20T00:34:44.751Z,1.73
2022-09-20T00:37:14.112Z,1.70
2022-09-20T00:39:43.438Z,1.30
2022-09-20T00:42:14.762Z,1.57
2022-09-20T00:45:02.611Z,1.20
2022-09-20T00:47:37.408Z,1.30
2022-09-20T00:50:16.790Z,1.03
2022-09-20T00:52:48.340Z,1.33
2022-09-20T00:55:18.325Z,0.80
2022-09-20T00:57:48.333Z,1.10
2022-09-20T01:00:17.848Z,0.90
2022-09-20T01:02:49.987Z,0.90
2022-09-20T01:05:21.738Z,1.20
2022-09-20T01:07:52.831Z,1.10
2022-09-20T01:10:22.170Z,1.67
2022-09-20T01:12:52.754Z,1.40
2022-09-20T01:15:23.573Z,1.00
2022-09-20T01:17:54.371Z,1.27
2022-09-20T01:20:27.541Z,1.20
2022-09-20T01:23:17.848Z,1.33
2022-09-20T01:26:17.401Z,1.17
2022-09-20T01:28:49.107Z,1.20
2022-09-20T01:31:22.196Z,1.10
2022-09-20T01:33:54.593Z,1.07
2022-09-20T01:36:27.371Z,1.20
2022-09-20T01:39:04.869Z,1.20
2022-09-20T01:41:38.170Z,1.90
2022-09-20T01:44:14.987Z,1.10
2022-09-20T01:46:45.505Z,1.50
2022-09-20T01:49:22.993Z,1.37
2022-09-20T01:52:23.612Z,1.47
2022-09-20T01:55:28.283Z,1.00
2022-09-20T01:58:38.294Z,1.60
2022-09-20T02:01:27.692Z,1.67
2022-09-20T02:04:23.672Z,1.67
2022-09-20T02:07:09.457Z,1.10
2022-09-20T02:10:06.582Z,1.17
2022-09-20T02:12:50.741Z,1.30
2022-09-20T02:15:42.936Z,1.53
2022-09-20T02:18:23.261Z,1.50
2022-09-20T02:20:56.681Z,1.53
2022-09-20T02:23:42.936Z,1.73
2022-09-20T02:26:36.371Z,1.30
2022-09-20T02:29:17.768Z,1.10
2022-09-20T02:32:07.843Z,1.40
2022-09-20T02:34:55.528Z,1.33
2022-09-20T02:37:55.236Z,1.33
2022-09-20T02:40:36.953Z,1.17
2022-09-20T02:43:12.164Z,1.40
2022-09-20T02:45:45.971Z,1.80
2022-09-20T02:48:16.928Z,1.10
2022-09-20T02:50:54.645Z,1.07
2022-09-20T02:53:33.777Z,1.30
2022-09-20T02:56:09.390Z,1.20
2022-09-20T02:58:46.170Z,1.13
2022-09-20T03:01:33.036Z,1.10
2022-09-20T03:04:19.657Z,1.10
2022-09-20T03:06:54.832Z,1.17
2022-09-20T03:09:30.017Z,1.30
2022-09-20T03:12:08.232Z,1.30
2022-09-20T03:14:42.492Z,1.50
2022-09-20T03:17:20.431Z,1.07
2022-09-20T03:20:06.501Z,1.20
2022-09-20T03:22:49.531Z,1.27
2022-09-20T03:25:39.286Z,1.27
2022-09-20T03:28:28.401Z,1.50
2022-09-20T03:31:05.446Z,1.30
2022-09-20T03:33:46.539Z,1.33
2022-09-20T03:36:41.876Z,1.60
2022-09-20T03:39:32.212Z,1.10
2022-09-20T03:42:11.140Z,1.67
2022-09-20T03:45:21.176Z,1.70
2022-09-20T03:48:06.191Z,1.17
2022-09-20T03:50:45.632Z,1.30
2022-09-20T03:53:40.103Z,1.17
2022-09-20T03:56:32.229Z,1.23
2022-09-20T03:59:15.903Z,1.13
2022-09-20T04:02:17.306Z,1.50
2022-09-20T04:04:51.355Z,1.33
2022-09-20T04:07:24.925Z,1.10
2022-09-20T04:10:05.162Z,1.57
2022-09-20T04:12:44.239Z,0.93
2022-09-20T04:15:26.102Z,1.37
2022-09-20T04:18:00.364Z,0.90
2022-09-20T04:20:37.429Z,1.00
2022-09-20T04:23:23.215Z,1.50
2022-09-20T04:25:53.569Z,1.17
2022-09-20T04:28:28.628Z,1.30
2022-09-20T04:31:07.536Z,1.40
2022-09-20T04:33:42.015Z,1.30
2022-09-20T04:36:29.992Z,1.90
2022-09-20T04:39:11.813Z,1.80
2022-09-20T04:42:15.787Z,1.57
2022-09-20T04:45:11.144Z,1.73
2022-09-20T04:48:13.996Z,1.87
2022-09-20T04:51:20.276Z,2.10
2022-09-20T04:54:18.309Z,2.07
2022-09-20T04:57:05.070Z,2.70
2022-09-20T04:59:43.488Z,2.23
2022-09-20T05:02:46.997Z,2.70
2022-09-20T05:05:36.095Z,2.33
2022-09-20T05:08:41.316Z,1.80
2022-09-20T05:11:42.514Z,1.90
2022-09-20T05:14:41.065Z,2.27
2022-09-20T05:17:23.481Z,2.77
2022-09-20T05:20:27.297Z,2.07
2022-09-20T05:23:17.511Z,1.77
2022-09-20T05:26:14.244Z,1.40
2022-09-20T05:28:55.873Z,1.60
2022-09-20T05:31:37.617Z,2.10
2022-09-20T05:34:18.190Z,2.07
2022-09-20T05:36:56.854Z,2.20
2022-09-20T05:39:36.673Z,2.00
2022-09-20T05:42:18.616Z,1.90
2022-09-20T05:44:59.508Z,2.50
2022-09-20T05:47:36.552Z,2.30
2022-09-20T05:50:41.493Z,2.50
2022-09-20T05:53:30.898Z,2.30
2022-09-20T05:56:07.326Z,2.03
2022-09-20T05:58:54.328Z,2.60
2022-09-20T06:01:29.309Z,2.10
2022-09-20T06:04:10.416Z,2.43
2022-09-20T06:06:51.362Z,2.30
2022-09-20T06:09:56.258Z,2.00
2022-09-20T06:12:43.110Z,2.03
2022-09-20T06:15:21.820Z,2.27
2022-09-20T06:17:57.645Z,2.70
2022-09-20T06:20:31.185Z,1.90
2022-09-20T06:23:02.091Z,1.67
2022-09-20T06:25:36.265Z,1.77
2022-09-20T06:28:08.542Z,1.53
2022-09-20T06:30:41.215Z,1.73
2022-09-20T06:33:17.672Z,1.97
2022-09-20T06:35:50.963Z,2.10
2022-09-20T06:38:52.660Z,2.10
2022-09-20T06:41:30.069Z,1.70
2022-09-20T06:44:00.063Z,2.00
2022-09-20T06:46:30.250Z,2.37
2022-09-20T06:49:02.339Z,2.30
2022-09-20T06:51:37.691Z,1.93
2022-09-20T06:54:08.297Z,2.60
2022-09-20T06:56:39.234Z,1.90
2022-09-20T06:59:10.509Z,1.97
2022-09-20T07:01:41.878Z,2.10
2022-09-20T07:04:11.868Z,1.90
2022-09-20T07:06:42.144Z,2.47
2022-09-20T07:09:13.194Z,1.77
2022-09-20T07:11:46.987Z,1.67
2022-09-20T07:14:17.289Z,1.40
2022-09-20T07:16:47.251Z,1.40
2022-09-20T07:19:17.842Z,1.67
2022-09-20T07:21:47.184Z,1.40
2022-09-20T07:24:17.367Z,1.80
2022-09-20T07:26:59.257Z,1.00
2022-09-20T07:29:29.739Z,0.97
2022-09-20T07:31:59.533Z,1.57
2022-09-20T07:34:29.598Z,1.83
2022-09-20T07:37:00.060Z,1.00
2022-09-20T07:39:30.770Z,1.30
2022-09-20T07:42:06.186Z,1.50
2022-09-20T07:44:35.418Z,1.10
2022-09-20T07:47:07.436Z,1.40
2022-09-20T07:49:37.362Z,1.60
2022-09-20T07:52:07.789Z,1.40
2022-09-20T07:54:36.972Z,1.23
2022-09-20T07:57:10.101Z,1.20
2022-09-20T07:59:39.403Z,1.00
2022-09-20T08:02:08.773Z,1.10
2022-09-20T08:04:38.050Z,0.80
2022-09-20T08:07:07.780Z,1.30
2022-09-20T08:09:37.445Z,0.80
2022-09-20T08:14:58.414Z,0.90
2022-09-20T08:17:29.100Z,0.97
2022-09-20T08:19:58.338Z,1.27
2022-09-20T08:22:28.553Z,1.00
2022-09-20T08:24:57.752Z,0.90
2022-09-20T08:27:29.658Z,0.80
2022-09-20T08:30:01.195Z,1.23
2022-09-20T08:32:33.241Z,1.07
2022-09-20T08:35:02.720Z,0.60
2022-09-20T08:37:32.413Z,0.80
2022-09-20T08:40:01.590Z,1.10
2022-09-20T08:42:37.911Z,0.60
2022-09-20T08:45:34.449Z,0.60
2022-09-20T08:48:08.678Z,0.50
2022-09-20T08:50:38.695Z,0.47
2022-09-20T08:53:09.480Z,0.50
2022-09-20T08:55:41.714Z,0.60
2022-09-20T08:58:13.663Z,0.50
2022-09-20T09:00:46.482Z,0.60
2022-09-20T09:03:18.188Z,0.40
2022-09-20T09:05:48.636Z,0.73
2022-09-20T09:08:19.899Z,0.90
2022-09-20T09:10:54.260Z,0.50
2022-09-20T09:13:28.275Z,0.30
2022-09-20T09:16:00.660Z,0.53
2022-09-20T09:18:35.254Z,0.50
2022-09-20T09:21:05.532Z,0.40
2022-09-20T09:23:42.577Z,0.50
2022-09-20T09:26:22.282Z,0.40
2022-09-20T09:29:13.602Z,0.30
2022-09-20T09:31:46.593Z,0.27
2022-09-20T09:34:27.759Z,0.53
2022-09-20T09:36:57.757Z,0.30
2022-09-20T09:39:28.920Z,0.40
2022-09-20T09:42:01.442Z,0.40
2022-09-20T09:44:34.214Z,0.40
2022-09-20T09:47:03.898Z,0.50
2022-09-20T09:49:36.643Z,0.50
2022-09-20T09:52:12.009Z,0.50
2022-09-20T09:54:47.052Z,0.30
2022-09-20T09:57:28.778Z,0.40
2022-09-20T10:00:19.368Z,0.30
2022-09-20T10:03:11.586Z,0.40
2022-09-20T10:05:47.753Z,0.60
2022-09-20T10:08:25.223Z,0.33
2022-09-20T10:11:07.498Z,0.40
2022-09-20T10:13:41.584Z,0.30
2022-09-20T10:16:19.552Z,0.30
2022-09-20T10:18:53.819Z,0.40
2022-09-20T10:21:39.213Z,0.37
2022-09-20T10:24:17.807Z,0.30
2022-09-20T10:27:15.878Z,0.30
2022-09-20T10:29:57.567Z,0.50
2022-09-20T10:32:50.047Z,0.40
2022-09-20T10:35:28.005Z,0.30
2022-09-20T10:38:07.620Z,0.30
2022-09-20T10:40:58.741Z,0.40
2022-09-20T10:43:38.150Z,0.33
2022-09-20T10:46:31.441Z,0.30
2022-09-20T10:49:18.239Z,0.50
2022-09-20T10:51:56.637Z,0.60
2022-09-20T10:54:38.686Z,0.30
2022-09-20T10:57:28.089Z,0.40
2022-09-20T11:00:03.745Z,0.33
2022-09-20T11:02:45.945Z,0.50
2022-09-20T11:05:36.035Z,0.50
2022-09-20T11:08:12.042Z,0.50
2022-09-20T11:10:45.185Z,0.40
2022-09-20T11:13:25.969Z,0.50
2022-09-20T11:16:00.527Z,0.47
2022-09-20T11:18:35.807Z,0.50
2022-09-20T11:21:10.321Z,0.70
2022-09-20T11:23:47.230Z,0.50
2022-09-20T11:26:22.733Z,0.40
2022-09-20T11:28:55.237Z,0.30
2022-09-20T11:31:28.507Z,0.60
2022-09-20T11:34:03.505Z,0.50
2022-09-20T11:36:39.913Z,0.50
2022-09-20T11:39:16.386Z,0.50
2022-09-20T11:41:46.167Z,0.60
2022-09-20T11:44:18.491Z,0.47
2022-09-20T11:46:53.062Z,0.87
2022-09-20T11:49:25.096Z,0.60
2022-09-20T11:52:22.761Z,0.60
2022-09-20T11:55:19.345Z,0.60
2022-09-20T11:58:01.097Z,0.60
2022-09-20T12:00:32.590Z,0.60
2022-09-20T12:03:03.858Z,1.03
2022-09-20T12:05:36.065Z,0.90
2022-09-20T12:08:11.116Z,0.87
2022-09-20T12:10:44.306Z,0.63
2022-09-20T12:13:24.472Z,0.50
2022-09-20T12:16:02.188Z,0.70
2022-09-20T12:18:37.688Z,0.80
2022-09-20T12:21:16.530Z,0.53
2022-09-20T12:24:12.038Z,0.53
2022-09-20T12:26:59.316Z,0.50
2022-09-20T12:30:06.717Z,0.47
2022-09-20T12:32:56.541Z,0.63
2022-09-20T12:36:14.555Z,0.60
2022-09-20T12:39:02.293Z,0.40
2022-09-20T12:41:49.464Z,0.40
2022-09-20T12:44:31.267Z,0.50
2022-09-20T12:47:03.495Z,0.70
2022-09-20T12:50:08.526Z,0.47
2022-09-20T12:53:01.175Z,0.83
2022-09-20T12:55:41.476Z,0.60
2022-09-20T12:58:44.314Z,0.53
2022-09-20T13:01:35.420Z,0.60
2022-09-20T13:04:44.131Z,0.50
2022-09-20T13:07:41.201Z,0.50
2022-09-20T13:10:27.160Z,0.70
2022-09-20T13:13:01.604Z,0.80
2022-09-20T13:15:33.288Z,0.67
2022-09-20T13:18:04.289Z,0.80
2022-09-20T13:23:23.650Z,0.60
2022-09-20T13:25:53.236Z,0.50
2022-09-20T13:28:36.623Z,0.53
2022-09-20T13:31:30.147Z,0.40
2022-09-20T13:34:15.948Z,0.60
2022-09-20T13:36:45.206Z,0.70
2022-09-20T13:39:29.477Z,0.50
2022-09-20T13:42:07.119Z,0.63
2022-09-20T13:44:37.396Z,0.47
2022-09-20T13:47:24.751Z,0.50
2022-09-20T13:49:56.858Z,0.60
2022-09-20T13:52:28.570Z,0.70
2022-09-20T13:54:58.524Z,0.43
2022-09-20T13:57:31.485Z,0.60
2022-09-20T14:00:01.784Z,0.57
2022-09-20T14:02:34.526Z,0.70
2022-09-20T14:05:07.317Z,0.83
2022-09-20T14:07:37.486Z,0.40
2022-09-20T14:10:27.110Z,0.50
2022-09-20T14:15:49.513Z,0.50
2022-09-20T14:18:22.285Z,0.57
2022-09-20T14:20:51.774Z,1.00
2022-09-20T14:23:25.445Z,0.50
2022-09-20T14:26:22.101Z,0.60
2022-09-20T14:28:51.509Z,0.77
2022-09-20T14:31:23.879Z,0.60
2022-09-20T14:33:56.550Z,0.60
2022-09-20T14:36:27.757Z,0.80
2022-09-20T14:39:00.647Z,1.00
2022-09-20T14:41:34.114Z,0.70
2022-09-20T14:44:04.293Z,0.40
2022-09-20T14:46:35.925Z,0.60
2022-09-20T14:49:39.808Z,0.60
2022-09-20T14:52:40.180Z,0.60
2022-09-20T14:55:28.665Z,0.60
2022-09-20T14:58:04.345Z,0.60
2022-09-20T15:00:49.020Z,0.70
2022-09-20T15:03:23.181Z,0.90
2022-09-20T15:05:53.839Z,0.60
2022-09-20T15:08:23.419Z,0.50
2022-09-20T15:10:52.702Z,0.57
2022-09-20T15:13:21.954Z,0.60
2022-09-20T15:15:54.324Z,0.40
2022-09-20T15:18:40.977Z,0.50
2022-09-20T15:21:12.584Z,0.60
2022-09-20T15:23:42.409Z,0.70
2022-09-20T15:26:13.325Z,0.40
2022-09-20T15:28:43.015Z,0.50
2022-09-20T15:31:16.509Z,0.40
2022-09-20T15:33:45.776Z,0.40
2022-09-20T15:36:16.448Z,0.40
2022-09-20T15:38:46.061Z,0.40
2022-09-20T15:41:15.425Z,0.50
2022-09-20T15:43:45.031Z,0.67
2022-09-20T15:46:21.576Z,0.50
2022-09-20T15:48:52.905Z,0.70
2022-09-20T15:51:24.437Z,0.90
2022-09-20T15:53:57.707Z,0.50
2022-09-20T15:56:28.769Z,0.60
2022-09-20T15:59:00.451Z,0.60
2022-09-20T16:01:32.186Z,0.60
2022-09-20T16:04:02.311Z,0.63
2022-09-20T16:06:34.445Z,0.50
2022-09-20T16:09:03.934Z,0.50
2022-09-20T16:11:33.266Z,0.40
2022-09-20T16:14:03.068Z,0.50
2022-09-20T16:16:38.883Z,0.60
2022-09-20T16:19:18.047Z,0.60
2022-09-20T16:21:53.774Z,0.60
2022-09-20T16:24:28.914Z,0.70
2022-09-20T16:27:01.439Z,0.70
2022-09-20T16:29:31.168Z,0.50
2022-09-20T16:32:01.820Z,0.50
2022-09-20T16:34:33.096Z,0.50
2022-09-20T16:37:05.867Z,0.60
2022-09-20T16:39:35.512Z,0.60
2022-09-20T16:42:08.790Z,0.50
2022-09-20T16:44:40.094Z,0.57
2022-09-20T16:47:18.253Z,0.47
2022-09-20T16:49:48.171Z,0.40
2022-09-20T16:52:18.942Z,0.57
2022-09-20T16:54:48.593Z,0.70
2022-09-20T16:57:17.946Z,0.97
2022-09-20T16:59:48.319Z,0.57
2022-09-20T17:02:18.032Z,0.83
2022-09-20T17:04:47.875Z,0.67
2022-09-20T17:07:18.814Z,0.83
2022-09-20T17:09:48.176Z,0.90
2022-09-20T17:12:21.929Z,0.80
2022-09-20T17:14:51.429Z,0.87
2022-09-20T17:17:22.881Z,0.70
2022-09-20T17:19:52.531Z,0.63
2022-09-20T17:22:23.737Z,0.70
2022-09-20T17:24:53.642Z,0.60
2022-09-20T17:27:24.122Z,0.73
2022-09-20T17:29:53.697Z,1.00
2022-09-20T17:32:23.137Z,0.70
2022-09-20T17:34:52.918Z,1.00
2022-09-20T17:37:23.832Z,0.80
2022-09-20T17:39:53.099Z,1.07
2022-09-20T17:42:23.203Z,1.00
2022-09-20T17:44:52.418Z,1.00
2022-09-20T17:47:22.720Z,1.20
2022-09-20T17:49:54.926Z,0.73
2022-09-20T17:52:26.310Z,1.03
2022-09-20T17:54:56.666Z,0.90
2022-09-20T17:57:25.893Z,0.90
2022-09-20T17:59:55.122Z,0.83
2022-09-20T18:02:28.180Z,1.20
2022-09-20T18:05:06.742Z,0.80
2022-09-20T18:07:48.655Z,1.13
2022-09-20T18:10:17.812Z,0.80
2022-09-20T18:12:47.605Z,1.00
2022-09-20T18:15:17.928Z,0.70
2022-09-20T18:17:51.329Z,1.10
2022-09-20T18:20:23.643Z,0.80
2022-09-20T18:22:54.950Z,0.80
2022-09-20T18:25:25.292Z,1.03
2022-09-20T18:27:55.021Z,1.13
2022-09-20T18:30:24.482Z,1.03
2022-09-20T18:32:54.145Z,0.70
2022-09-20T18:35:23.699Z,1.07
2022-09-20T18:37:54.488Z,1.03
2022-09-20T18:40:25.221Z,0.93
2022-09-20T18:43:03.712Z,1.23
2022-09-20T18:45:35.063Z,1.17
2022-09-20T18:48:07.571Z,1.00
2022-09-20T18:50:37.610Z,1.00
2022-09-20T18:53:08.699Z,1.10
2022-09-20T18:55:38.927Z,1.40
2022-09-20T18:58:10.042Z,0.90
2022-09-20T19:00:39.930Z,1.40
2022-09-20T19:03:16.077Z,1.63
2022-09-20T19:05:48.740Z,1.97
2022-09-20T19:08:35.566Z,0.80
2022-09-20T19:11:09.805Z,1.20
2022-09-20T19:13:45.105Z,2.00
2022-09-20T19:16:19.730Z,1.50
2022-09-20T19:19:13.560Z,0.90
2022-09-20T19:21:49.605Z,1.10
2022-09-20T19:24:42.191Z,1.37
2022-09-20T19:27:13.928Z,1.13
2022-09-20T19:29:44.516Z,1.37
2022-09-20T19:32:21.528Z,1.40
2022-09-20T19:34:55.268Z,1.80
2022-09-20T19:37:33.023Z,1.73
2022-09-20T19:40:26.406Z,1.70
2022-09-20T19:43:06.581Z,1.80
2022-09-20T19:45:42.128Z,1.67
2022-09-20T19:48:19.438Z,1.57
2022-09-20T19:50:53.271Z,1.30
2022-09-20T19:53:28.322Z,1.63
2022-09-20T19:56:02.214Z,1.53
2022-09-20T19:58:32.127Z,1.70
2022-09-20T20:01:01.819Z,1.63
2022-09-20T20:03:31.774Z,1.30
2022-09-20T20:06:08.076Z,2.10
2022-09-20T20:08:45.841Z,1.30
2022-09-20T20:11:25.148Z,1.77
2022-09-20T20:14:10.278Z,1.80
2022-09-20T20:16:46.997Z,2.10
2022-09-20T20:19:36.588Z,1.50
2022-09-20T20:22:23.655Z,2.23
2022-09-20T20:24:54.359Z,2.63
2022-09-20T20:27:28.445Z,1.83
2022-09-20T20:29:58.401Z,1.63
2022-09-20T20:32:28.087Z,2.27
2022-09-20T20:34:58.077Z,2.00
2022-09-20T20:37:31.097Z,1.87
2022-09-20T20:40:02.692Z,1.70
2022-09-20T20:42:39.774Z,1.30
2022-09-20T20:45:10.162Z,2.67
2022-09-20T20:47:58.382Z,3.17
2022-09-20T20:50:44.841Z,2.47
2022-09-20T20:53:30.503Z,2.93
2022-09-20T20:56:56.129Z,2.40
2022-09-20T20:59:40.940Z,1.70
2022-09-20T21:02:14.800Z,2.00
2022-09-20T21:04:50.974Z,1.57
2022-09-20T21:07:56.348Z,1.50
2022-09-20T21:10:52.112Z,1.90
2022-09-20T21:14:08.423Z,1.50
2022-09-20T21:20:34.127Z,1.80
2022-09-20T21:23:27.503Z,2.00
2022-09-20T21:26:18.007Z,1.50
2022-09-20T21:28:52.181Z,1.93
2022-09-20T21:31:22.773Z,1.77
2022-09-20T21:33:53.949Z,2.23
2022-09-20T21:36:27.762Z,1.97
2022-09-20T21:39:00.884Z,2.70
2022-09-20T21:41:34.164Z,1.93
2022-09-20T21:44:05.091Z,2.00
2022-09-20T21:46:36.429Z,1.90
2022-09-20T21:49:09.135Z,2.17
2022-09-20T21:51:39.238Z,2.53
2022-09-20T21:54:08.953Z,2.20
2022-09-20T21:56:40.316Z,1.67
2022-09-20T21:59:10.715Z,1.70
2022-09-20T22:01:41.458Z,1.27
2022-09-20T22:04:13.351Z,1.47
2022-09-20T22:06:45.357Z,1.40
2022-09-20T22:09:19.826Z,1.63
2022-09-20T22:11:51.072Z,1.47
2022-09-20T22:14:21.378Z,1.50
2022-09-20T22:16:51.622Z,1.73
2022-09-20T22:19:22.489Z,1.37
2022-09-20T22:21:52.347Z,1.10
2022-09-20T22:24:21.672Z,1.10
2022-09-20T22:26:53.715Z,1.37
2022-09-20T22:29:25.854Z,1.70
2022-09-20T22:31:55.425Z,2.60
2022-09-20T22:34:29.080Z,2.00
2022-09-20T22:36:58.652Z,2.57
2022-09-20T22:39:28.116Z,2.30
2022-09-20T22:41:57.555Z,2.23
2022-09-20T22:44:26.990Z,1.77
2022-09-20T22:46:57.602Z,2.60
2022-09-20T22:49:28.324Z,2.40
2022-09-20T22:51:57.573Z,2.20
2022-09-20T22:54:27.112Z,2.67
2022-09-20T22:56:59.598Z,1.40
2022-09-20T22:59:29.490Z,2.20
2022-09-20T23:01:59.187Z,1.90
2022-09-20T23:04:32.798Z,2.30
2022-09-20T23:07:01.930Z,2.00
2022-09-20T23:09:31.820Z,2.10
2022-09-20T23:12:01.657Z,1.63
2022-09-20T23:14:31.174Z,1.57
2022-09-20T23:17:00.997Z,1.43
2022-09-20T23:19:32.170Z,1.67
2022-09-20T23:22:02.127Z,2.10
2022-09-20T23:24:31.593Z,1.97
2022-09-20T23:27:03.264Z,1.40
2022-09-20T23:29:34.551Z,1.30
2022-09-20T23:32:13.765Z,1.17
2022-09-20T23:34:47.181Z,1.53
2022-09-20T23:37:17.181Z,1.10
2022-09-20T23:39:46.718Z,1.17
2022-09-20T23:42:16.026Z,1.27
2022-09-20T23:44:45.668Z,1.20
2022-09-20T23:47:15.064Z,1.50
2022-09-20T23:49:49.056Z,1.70
2022-09-20T23:52:20.894Z,1.27
2022-09-20T23:54:50.323Z,1.20
2022-09-20T23:57:24.421Z,1.33
2022-09-20T23:59:54.444Z,1.60
